createdAt,value
2019-01-27T00:02:23.012Z,0.80
2019-01-27T00:04:51.453Z,0.60
2019-01-27T00:07:19.819Z,0.60
2019-01-27T00:09:48.272Z,0.60
2019-01-27T00:12:16.718Z,0.60
2019-01-27T00:14:45.100Z,0.50
2019-01-27T00:17:13.547Z,0.50
2019-01-27T00:19:41.902Z,0.60
2019-01-27T00:22:10.246Z,0.60
2019-01-27T00:24:38.721Z,0.50
2019-01-27T00:27:07.128Z,0.40
2019-01-27T00:29:35.501Z,0.50
2019-01-27T00:32:04.184Z,0.60
2019-01-27T00:34:32.537Z,0.60
2019-01-27T00:37:01.088Z,0.60
2019-01-27T00:39:29.429Z,0.50
2019-01-27T00:41:57.803Z,0.30
2019-01-27T00:44:26.248Z,0.50
2019-01-27T00:46:56.150Z,0.50
2019-01-27T00:49:24.999Z,0.50
2019-01-27T00:51:53.362Z,0.60
2019-01-27T00:54:22.404Z,0.60
2019-01-27T00:56:50.785Z,0.60
2019-01-27T00:59:26.304Z,0.60
2019-01-27T01:01:54.777Z,0.50
2019-01-27T01:04:23.215Z,0.60
2019-01-27T01:06:51.682Z,0.50
2019-01-27T01:09:20.029Z,0.50
2019-01-27T01:11:49.801Z,0.40
2019-01-27T01:14:19.256Z,0.40
2019-01-27T01:16:48.459Z,0.40
2019-01-27T01:19:16.798Z,0.40
2019-01-27T01:21:45.268Z,0.50
2019-01-27T01:24:13.726Z,0.70
2019-01-27T01:26:42.287Z,0.70
2019-01-27T01:29:10.624Z,0.70
2019-01-27T01:31:39.108Z,0.80
2019-01-27T01:34:07.555Z,0.80
2019-01-27T01:36:36.108Z,0.80
2019-01-27T01:39:07.700Z,0.80
2019-01-27T01:41:36.067Z,0.80
2019-01-27T01:44:04.770Z,0.70
2019-01-27T01:46:33.421Z,0.70
2019-01-27T01:49:01.770Z,0.70
2019-01-27T01:51:30.133Z,0.70
2019-01-27T01:53:58.587Z,0.60
2019-01-27T01:56:27.029Z,0.50
2019-01-27T01:58:55.373Z,0.60
2019-01-27T02:01:25.048Z,0.50
2019-01-27T02:03:53.410Z,0.30
2019-01-27T02:06:21.983Z,0.30
2019-01-27T02:08:50.432Z,0.40
2019-01-27T02:11:18.789Z,0.40
2019-01-27T02:13:47.154Z,0.50
2019-01-27T02:16:15.687Z,0.60
2019-01-27T02:18:44.163Z,0.50
2019-01-27T02:21:12.519Z,0.30
2019-01-27T02:23:40.981Z,0.30
2019-01-27T02:26:10.224Z,0.40
2019-01-27T02:28:38.688Z,0.40
2019-01-27T02:31:07.139Z,0.40
2019-01-27T02:33:35.692Z,0.50
2019-01-27T02:36:04.416Z,0.40
2019-01-27T02:38:32.772Z,0.40
2019-01-27T02:41:01.140Z,0.40
2019-01-27T02:43:29.592Z,0.40
2019-01-27T02:45:58.032Z,0.10
2019-01-27T02:48:26.501Z,0.00
2019-01-27T02:50:54.938Z,-0.10
2019-01-27T02:53:23.306Z,-0.10
2019-01-27T02:55:51.751Z,0.00
2019-01-27T02:58:20.218Z,0.10
2019-01-27T03:00:48.642Z,0.30
2019-01-27T03:03:37.103Z,0.30
2019-01-27T03:06:44.035Z,0.30
2019-01-27T03:09:24.516Z,0.20
2019-01-27T03:11:53.668Z,0.20
2019-01-27T03:14:22.045Z,0.20
2019-01-27T03:16:53.219Z,0.20
2019-01-27T03:19:21.886Z,0.20
2019-01-27T03:21:50.227Z,0.20
2019-01-27T03:24:18.677Z,0.20
2019-01-27T03:26:47.160Z,0.10
2019-01-27T03:29:15.928Z,0.00
2019-01-27T03:31:44.384Z,-0.30
2019-01-27T03:34:12.748Z,-0.20
2019-01-27T03:36:41.280Z,-0.40
2019-01-27T03:39:11.294Z,-0.30
2019-01-27T03:41:39.757Z,-0.10
2019-01-27T03:44:08.257Z,-0.10
2019-01-27T03:46:36.657Z,0.00
2019-01-27T03:49:06.508Z,-0.30
2019-01-27T03:51:35.056Z,-0.10
2019-01-27T03:54:05.112Z,0.00
2019-01-27T03:56:33.794Z,0.00
2019-01-27T03:59:02.603Z,0.00
2019-01-27T04:01:30.956Z,0.10
2019-01-27T04:03:59.340Z,0.00
2019-01-27T04:06:29.549Z,-0.10
2019-01-27T04:08:57.922Z,-0.20
2019-01-27T04:11:28.487Z,-0.10
2019-01-27T04:13:56.971Z,0.00
2019-01-27T04:16:25.378Z,0.00
2019-01-27T04:18:53.846Z,-0.10
2019-01-27T04:21:22.177Z,-0.10
2019-01-27T04:23:52.337Z,-0.20
2019-01-27T04:26:20.794Z,-0.10
2019-01-27T04:28:49.464Z,-0.10
2019-01-27T04:31:19.200Z,-0.20
2019-01-27T04:33:47.571Z,-0.30
2019-01-27T04:36:16.001Z,-0.40
2019-01-27T04:38:44.572Z,-0.40
2019-01-27T04:41:14.129Z,-0.30
2019-01-27T04:43:42.478Z,-0.30
2019-01-27T04:46:11.030Z,-0.40
2019-01-27T04:48:39.375Z,-0.50
2019-01-27T04:51:07.735Z,-0.40
2019-01-27T04:53:36.098Z,-0.50
2019-01-27T04:56:04.827Z,-0.50
2019-01-27T04:58:34.273Z,-0.40
2019-01-27T05:01:03.051Z,-0.30
2019-01-27T05:03:49.899Z,-0.20
2019-01-27T05:06:19.730Z,-0.20
2019-01-27T05:08:48.357Z,-0.20
2019-01-27T05:11:16.830Z,-0.10
2019-01-27T05:13:45.188Z,-0.10
2019-01-27T05:16:13.670Z,-0.30
2019-01-27T05:18:42.024Z,-0.50
2019-01-27T05:21:10.387Z,-0.50
2019-01-27T05:23:40.553Z,-0.30
2019-01-27T05:26:09.132Z,-0.20
2019-01-27T05:28:37.669Z,-0.20
2019-01-27T05:31:06.016Z,-0.20
2019-01-27T05:33:35.883Z,-0.20
2019-01-27T05:36:04.572Z,-0.20
2019-01-27T05:38:33.053Z,-0.10
2019-01-27T05:41:01.617Z,-0.10
2019-01-27T05:43:30.004Z,-0.10
2019-01-27T05:45:58.458Z,-0.10
2019-01-27T05:48:26.911Z,-0.20
2019-01-27T05:50:55.354Z,-0.20
2019-01-27T05:53:23.827Z,-0.10
2019-01-27T05:55:52.175Z,-0.10
2019-01-27T05:58:20.639Z,-0.10
2019-01-27T06:00:49.297Z,-0.10
2019-01-27T06:03:17.858Z,-0.20
2019-01-27T06:05:46.462Z,-0.30
2019-01-27T06:08:15.037Z,-0.60
2019-01-27T06:10:43.389Z,-0.60
2019-01-27T06:13:11.843Z,-0.50
2019-01-27T06:15:40.393Z,-0.50
2019-01-27T06:18:08.849Z,-0.40
2019-01-27T06:20:37.241Z,-0.50
2019-01-27T06:23:05.606Z,-0.60
2019-01-27T06:25:35.844Z,-0.60
2019-01-27T06:28:04.298Z,-0.50
2019-01-27T06:30:32.669Z,-0.50
2019-01-27T06:33:19.777Z,-0.50
2019-01-27T06:35:49.831Z,-0.60
2019-01-27T06:38:18.200Z,-0.60
2019-01-27T06:40:48.068Z,-0.70
2019-01-27T06:43:16.518Z,-0.60
2019-01-27T06:45:46.336Z,-0.60
2019-01-27T06:48:14.813Z,-0.60
2019-01-27T06:50:43.485Z,-0.80
2019-01-27T06:53:11.847Z,-0.70
2019-01-27T06:55:40.367Z,-0.70
2019-01-27T06:58:10.050Z,-0.60
2019-01-27T07:01:02.708Z,-0.50
2019-01-27T07:03:53.451Z,-0.50
2019-01-27T07:06:45.262Z,-0.50
2019-01-27T07:09:27.522Z,-0.70
2019-01-27T07:12:20.228Z,-0.70
2019-01-27T07:15:01.414Z,-0.70
2019-01-27T07:18:02.074Z,-0.50
2019-01-27T07:20:56.253Z,-0.40
2019-01-27T07:23:35.889Z,-0.20
2019-01-27T07:26:24.214Z,-0.10
2019-01-27T07:29:21.624Z,0.00
2019-01-27T07:32:21.639Z,0.10
2019-01-27T07:35:21.783Z,0.20
2019-01-27T07:38:18.769Z,0.20
2019-01-27T07:40:59.532Z,0.10
2019-01-27T07:43:50.649Z,0.10
2019-01-27T07:46:45.334Z,0.00
2019-01-27T07:49:25.102Z,0.10
2019-01-27T07:52:22.739Z,0.10
2019-01-27T07:55:09.549Z,0.20
2019-01-27T07:57:45.969Z,0.20
2019-01-27T08:00:29.453Z,0.00
2019-01-27T08:03:14.272Z,-0.10
2019-01-27T08:05:52.129Z,-0.10
2019-01-27T08:08:39.149Z,-0.10
2019-01-27T08:11:33.291Z,0.00
2019-01-27T08:14:13.407Z,0.20
2019-01-27T08:17:10.871Z,0.40
2019-01-27T08:19:45.816Z,0.60
2019-01-27T08:22:40.027Z,0.60
2019-01-27T08:25:34.565Z,0.60
2019-01-27T08:28:29.001Z,0.60
2019-01-27T08:31:28.019Z,0.50
2019-01-27T08:34:02.366Z,0.60
2019-01-27T08:36:42.335Z,0.80
2019-01-27T08:39:17.609Z,0.90
2019-01-27T08:42:04.599Z,0.80
2019-01-27T08:44:49.019Z,0.90
2019-01-27T08:47:17.458Z,1.00
2019-01-27T08:49:45.812Z,1.10
2019-01-27T08:52:14.276Z,1.20
2019-01-27T08:54:42.656Z,1.30
2019-01-27T08:57:12.824Z,1.30
2019-01-27T08:59:43.006Z,1.50
2019-01-27T09:02:46.511Z,1.50
2019-01-27T09:05:31.038Z,1.50
2019-01-27T09:08:22.073Z,1.60
2019-01-27T09:11:17.321Z,1.50
2019-01-27T09:14:12.016Z,1.60
2019-01-27T09:17:18.282Z,1.60
2019-01-27T09:20:00.475Z,1.60
2019-01-27T09:22:48.776Z,1.70
2019-01-27T09:25:37.757Z,1.70
2019-01-27T09:28:15.556Z,1.80
2019-01-27T09:31:12.444Z,1.90
2019-01-27T09:34:13.342Z,1.90
2019-01-27T09:36:58.706Z,1.90
2019-01-27T09:39:47.413Z,2.00
2019-01-27T09:42:32.132Z,2.10
2019-01-27T09:45:20.114Z,2.20
2019-01-27T09:48:23.173Z,2.20
2019-01-27T09:51:04.462Z,2.20
2019-01-27T09:54:01.383Z,2.20
2019-01-27T09:56:42.171Z,2.20
2019-01-27T09:59:25.063Z,2.30
2019-01-27T10:02:07.186Z,2.20
2019-01-27T10:04:47.141Z,2.30
2019-01-27T10:07:35.763Z,2.20
2019-01-27T10:10:16.440Z,2.20
2019-01-27T10:13:14.031Z,2.40
2019-01-27T10:15:59.376Z,2.50
2019-01-27T10:18:46.204Z,2.70
2019-01-27T10:21:40.474Z,2.60
2019-01-27T10:24:27.313Z,2.80
2019-01-27T10:27:06.009Z,2.80
2019-01-27T10:29:46.177Z,2.90
2019-01-27T10:32:24.164Z,2.80
2019-01-27T10:35:24.415Z,2.50
2019-01-27T10:38:28.469Z,2.20
2019-01-27T10:41:02.741Z,2.10
2019-01-27T10:43:56.524Z,2.00
2019-01-27T10:46:43.409Z,2.20
2019-01-27T10:49:24.800Z,2.40
2019-01-27T10:52:09.011Z,2.50
2019-01-27T10:54:46.132Z,2.40
2019-01-27T10:57:42.509Z,2.40
2019-01-27T11:00:29.850Z,2.60
2019-01-27T11:03:16.831Z,2.70
2019-01-27T11:06:07.596Z,2.70
2019-01-27T11:09:11.088Z,2.80
2019-01-27T11:11:57.861Z,2.80
2019-01-27T11:14:48.606Z,2.90
2019-01-27T11:17:24.677Z,2.80
2019-01-27T11:20:08.430Z,2.60
2019-01-27T11:22:47.299Z,2.60
2019-01-27T11:25:38.512Z,2.80
2019-01-27T11:28:24.356Z,2.90
2019-01-27T11:31:12.601Z,2.90
2019-01-27T11:34:06.390Z,2.90
2019-01-27T11:37:12.881Z,2.70
2019-01-27T11:40:14.829Z,2.90
2019-01-27T11:42:53.942Z,2.80
2019-01-27T11:45:35.207Z,2.70
2019-01-27T11:48:19.662Z,2.80
2019-01-27T11:51:10.472Z,2.90
2019-01-27T11:53:38.839Z,3.00
2019-01-27T11:56:07.236Z,3.10
2019-01-27T11:58:36.704Z,3.10
2019-01-27T12:01:05.675Z,3.10
2019-01-27T12:03:34.384Z,3.10
2019-01-27T12:06:02.925Z,3.10
2019-01-27T12:08:31.321Z,3.30
2019-01-27T12:10:59.688Z,3.30
2019-01-27T12:13:28.062Z,3.30
2019-01-27T12:15:56.742Z,3.30
2019-01-27T12:18:25.205Z,3.40
2019-01-27T12:20:55.416Z,3.50
2019-01-27T12:23:23.881Z,3.40
2019-01-27T12:25:53.452Z,3.50
2019-01-27T12:28:21.823Z,3.50
2019-01-27T12:30:50.217Z,3.50
2019-01-27T12:33:18.586Z,3.60
2019-01-27T12:35:47.082Z,3.60
2019-01-27T12:38:15.443Z,3.60
2019-01-27T12:40:43.824Z,3.60
2019-01-27T12:43:12.191Z,3.60
2019-01-27T12:45:40.659Z,3.60
2019-01-27T12:48:09.118Z,3.70
2019-01-27T12:50:37.862Z,3.80
2019-01-27T12:53:06.232Z,3.80
2019-01-27T12:55:34.640Z,3.80
2019-01-27T12:58:03.312Z,3.70
2019-01-27T13:00:36.663Z,3.60
2019-01-27T13:03:05.333Z,3.70
2019-01-27T13:05:33.804Z,3.90
2019-01-27T13:08:02.157Z,4.00
2019-01-27T13:10:30.556Z,4.00
2019-01-27T13:12:59.494Z,4.10
2019-01-27T13:15:27.926Z,4.10
2019-01-27T13:17:56.450Z,4.10
2019-01-27T13:20:24.924Z,4.20
2019-01-27T13:22:53.644Z,4.30
2019-01-27T13:25:22.574Z,4.30
2019-01-27T13:27:51.399Z,4.30
2019-01-27T13:30:21.856Z,4.40
2019-01-27T13:32:50.211Z,4.20
2019-01-27T13:35:19.802Z,4.10
2019-01-27T13:37:49.518Z,4.20
2019-01-27T13:40:20.461Z,4.30
2019-01-27T13:42:49.084Z,4.40
2019-01-27T13:45:23.599Z,4.40
2019-01-27T13:47:51.961Z,4.30
2019-01-27T13:50:20.336Z,4.30
2019-01-27T13:52:48.704Z,4.30
2019-01-27T13:55:23.157Z,4.40
2019-01-27T13:57:51.521Z,4.40
2019-01-27T14:00:30.872Z,4.50
2019-01-27T14:02:59.472Z,4.40
2019-01-27T14:05:28.031Z,4.40
2019-01-27T14:07:56.999Z,4.50
2019-01-27T14:10:26.827Z,4.60
2019-01-27T14:12:56.718Z,4.50
2019-01-27T14:15:28.222Z,4.40
2019-01-27T14:17:58.395Z,4.40
2019-01-27T14:20:26.956Z,4.50
2019-01-27T14:22:55.531Z,4.50
2019-01-27T14:25:27.764Z,4.50
2019-01-27T14:27:56.354Z,4.50
2019-01-27T14:30:28.597Z,4.60
2019-01-27T14:32:58.465Z,4.60
2019-01-27T14:35:26.863Z,4.70
2019-01-27T14:37:55.859Z,4.80
2019-01-27T14:40:26.720Z,4.60
2019-01-27T14:42:56.088Z,4.60
2019-01-27T14:45:27.056Z,4.60
2019-01-27T14:47:56.765Z,4.70
2019-01-27T14:50:31.442Z,4.70
2019-01-27T14:52:59.824Z,4.70
2019-01-27T14:55:30.173Z,4.70
2019-01-27T14:57:58.556Z,4.70
2019-01-27T15:00:36.397Z,4.70
2019-01-27T15:03:03.729Z,4.70
2019-01-27T15:05:32.107Z,4.70
2019-01-27T15:08:00.589Z,4.80
2019-01-27T15:10:29.259Z,4.70
2019-01-27T15:12:57.851Z,4.70
2019-01-27T15:15:26.237Z,4.60
2019-01-27T15:17:54.612Z,4.60
2019-01-27T15:20:30.070Z,4.60
2019-01-27T15:22:58.540Z,4.40
2019-01-27T15:25:27.287Z,4.40
2019-01-27T15:27:57.465Z,4.50
2019-01-27T15:30:29.025Z,4.50
2019-01-27T15:32:57.633Z,4.50
2019-01-27T15:35:26.047Z,4.50
2019-01-27T15:37:55.308Z,4.50
2019-01-27T15:40:23.793Z,4.60
2019-01-27T15:42:52.163Z,4.50
2019-01-27T15:45:24.100Z,4.40
2019-01-27T15:47:52.566Z,4.40
2019-01-27T15:50:23.928Z,4.30
2019-01-27T15:52:52.396Z,4.30
2019-01-27T15:55:21.079Z,4.20
2019-01-27T15:57:49.463Z,4.30
2019-01-27T16:00:29.652Z,4.20
2019-01-27T16:02:58.345Z,4.10
2019-01-27T16:05:27.111Z,4.10
2019-01-27T16:07:55.587Z,4.10
2019-01-27T16:10:24.131Z,3.90
2019-01-27T16:12:53.472Z,3.90
2019-01-27T16:15:25.548Z,3.80
2019-01-27T16:17:53.914Z,3.80
2019-01-27T16:20:22.714Z,3.80
2019-01-27T16:23:13.660Z,3.80
2019-01-27T16:25:42.316Z,3.80
2019-01-27T16:28:10.877Z,3.70
2019-01-27T16:30:58.093Z,3.60
2019-01-27T16:33:33.898Z,3.50
2019-01-27T16:36:02.687Z,3.40
2019-01-27T16:38:31.207Z,3.50
2019-01-27T16:40:59.752Z,3.60
2019-01-27T16:43:28.103Z,3.50
2019-01-27T16:45:56.880Z,3.50
2019-01-27T16:48:25.814Z,3.40
2019-01-27T16:50:54.160Z,3.40
2019-01-27T16:53:22.563Z,3.50
2019-01-27T16:55:51.129Z,3.50
2019-01-27T16:58:19.915Z,3.40
2019-01-27T17:00:50.944Z,3.30
2019-01-27T17:03:19.718Z,3.30
2019-01-27T17:05:48.390Z,3.30
2019-01-27T17:08:16.969Z,3.30
2019-01-27T17:10:45.523Z,3.50
2019-01-27T17:13:13.896Z,3.50
2019-01-27T17:15:42.437Z,3.50
2019-01-27T17:18:10.823Z,3.50
2019-01-27T17:20:39.408Z,3.50
2019-01-27T17:23:08.106Z,3.50
2019-01-27T17:25:37.744Z,3.50
2019-01-27T17:28:06.330Z,3.50
2019-01-27T17:30:34.953Z,3.40
2019-01-27T17:33:03.761Z,3.50
2019-01-27T17:35:32.467Z,3.50
2019-01-27T17:38:00.970Z,3.40
2019-01-27T17:40:29.370Z,3.30
2019-01-27T17:42:58.767Z,3.20
2019-01-27T17:45:27.442Z,3.20
2019-01-27T17:47:56.152Z,3.30
2019-01-27T17:50:25.036Z,3.20
2019-01-27T17:52:53.524Z,3.20
2019-01-27T17:55:39.433Z,3.30
2019-01-27T17:58:54.324Z,3.20
2019-01-27T18:01:36.571Z,3.20
2019-01-27T18:04:15.482Z,3.20
2019-01-27T18:07:05.397Z,3.20
2019-01-27T18:09:55.246Z,3.20
2019-01-27T18:12:28.780Z,3.20
2019-01-27T18:14:57.150Z,3.30
2019-01-27T18:17:25.563Z,3.20
2019-01-27T18:19:54.175Z,3.20
2019-01-27T18:22:24.324Z,3.20
2019-01-27T18:24:52.822Z,3.30
2019-01-27T18:27:21.401Z,3.20
2019-01-27T18:29:49.961Z,3.20
2019-01-27T18:32:18.920Z,3.20
2019-01-27T18:34:47.268Z,3.30
2019-01-27T18:37:16.057Z,3.20
2019-01-27T18:39:44.824Z,3.20
2019-01-27T18:42:15.285Z,3.30
2019-01-27T18:44:44.005Z,3.00
2019-01-27T18:47:12.490Z,2.70
2019-01-27T18:49:41.233Z,2.80
2019-01-27T18:52:09.610Z,3.00
2019-01-27T18:54:59.380Z,2.90
2019-01-27T18:57:42.669Z,3.00
2019-01-27T19:00:30.233Z,3.20
2019-01-27T19:03:08.165Z,3.20
2019-01-27T19:05:57.845Z,3.20
2019-01-27T19:08:53.294Z,3.30
2019-01-27T19:11:50.238Z,3.20
2019-01-27T19:14:35.634Z,3.10
2019-01-27T19:17:17.328Z,3.20
2019-01-27T19:20:14.864Z,3.20
2019-01-27T19:22:50.992Z,3.20
2019-01-27T19:25:54.059Z,3.10
2019-01-27T19:28:38.092Z,3.30
2019-01-27T19:31:33.946Z,3.20
2019-01-27T19:34:11.302Z,3.20
2019-01-27T19:37:11.673Z,3.10
2019-01-27T19:39:50.341Z,3.10
2019-01-27T19:42:34.520Z,3.10
2019-01-27T19:45:09.826Z,3.20
2019-01-27T19:47:49.302Z,3.10
2019-01-27T19:50:44.948Z,3.10
2019-01-27T19:53:26.155Z,3.10
2019-01-27T19:56:23.348Z,3.00
2019-01-27T19:58:58.554Z,3.10
2019-01-27T20:01:52.957Z,3.20
2019-01-27T20:04:49.647Z,3.20
2019-01-27T20:07:44.001Z,3.10
2019-01-27T20:10:27.418Z,3.10
2019-01-27T20:13:15.725Z,3.10
2019-01-27T20:16:06.692Z,3.00
2019-01-27T20:18:48.418Z,3.10
2019-01-27T20:21:43.589Z,3.00
2019-01-27T20:24:21.525Z,3.10
2019-01-27T20:27:08.338Z,3.30
2019-01-27T20:29:55.281Z,3.30
2019-01-27T20:32:46.475Z,3.40
2019-01-27T20:35:47.540Z,3.40
2019-01-27T20:38:34.135Z,3.40
2019-01-27T20:41:09.947Z,3.40
2019-01-27T20:43:46.583Z,3.40
2019-01-27T20:46:34.763Z,3.40
2019-01-27T20:49:10.887Z,3.50
2019-01-27T20:52:01.170Z,3.50
2019-01-27T20:54:47.839Z,3.40
2019-01-27T20:57:51.444Z,3.30
2019-01-27T21:00:32.454Z,3.20
2019-01-27T21:03:29.770Z,3.20
2019-01-27T21:06:05.903Z,3.20
2019-01-27T21:09:05.942Z,3.30
2019-01-27T21:12:12.913Z,3.40
2019-01-27T21:14:57.851Z,3.50
2019-01-27T21:17:39.367Z,3.40
2019-01-27T21:20:19.373Z,3.40
2019-01-27T21:22:47.820Z,3.40
2019-01-27T21:25:18.113Z,3.30
2019-01-27T21:27:46.506Z,3.30
2019-01-27T21:30:17.147Z,3.30
2019-01-27T21:32:45.859Z,3.30
2019-01-27T21:35:14.413Z,3.20
2019-01-27T21:37:43.136Z,3.20
2019-01-27T21:40:18.434Z,3.20
2019-01-27T21:42:47.800Z,3.20
2019-01-27T21:45:17.044Z,3.20
2019-01-27T21:47:46.210Z,3.20
2019-01-27T21:50:17.481Z,3.10
2019-01-27T21:52:46.250Z,3.20
2019-01-27T21:55:14.745Z,3.20
2019-01-27T21:57:43.104Z,3.20
2019-01-27T22:00:28.611Z,3.10
2019-01-27T22:02:58.134Z,3.10
2019-01-27T22:05:28.423Z,3.10
2019-01-27T22:07:56.800Z,3.10
2019-01-27T22:10:26.963Z,3.10
2019-01-27T22:12:55.337Z,3.20
2019-01-27T22:15:24.877Z,3.30
2019-01-27T22:17:53.340Z,3.40
2019-01-27T22:20:21.697Z,3.40
2019-01-27T22:22:50.148Z,3.50
2019-01-27T22:25:18.900Z,3.50
2019-01-27T22:27:47.265Z,3.50
2019-01-27T22:30:18.649Z,3.50
2019-01-27T22:32:47.224Z,3.40
2019-01-27T22:35:15.802Z,3.40
2019-01-27T22:37:44.165Z,3.40
2019-01-27T22:40:14.186Z,3.40
2019-01-27T22:42:42.669Z,3.40
2019-01-27T22:45:12.733Z,3.40
2019-01-27T22:47:41.095Z,3.40
2019-01-27T22:50:13.537Z,3.50
2019-01-27T22:52:42.232Z,3.50
2019-01-27T22:55:11.166Z,3.60
2019-01-27T22:57:39.619Z,3.40
2019-01-27T23:00:48.767Z,3.40
2019-01-27T23:03:17.287Z,3.40
2019-01-27T23:05:45.840Z,3.50
2019-01-27T23:08:14.322Z,3.50
2019-01-27T23:10:42.682Z,3.60
2019-01-27T23:13:11.144Z,3.70
2019-01-27T23:15:39.561Z,3.70
2019-01-27T23:18:08.317Z,3.60
2019-01-27T23:20:36.800Z,3.60
2019-01-27T23:23:05.347Z,3.70
2019-01-27T23:25:33.904Z,3.70
2019-01-27T23:28:02.258Z,3.80
2019-01-27T23:30:30.620Z,3.80
2019-01-27T23:32:59.069Z,3.70
2019-01-27T23:35:27.511Z,3.70
2019-01-27T23:37:57.085Z,3.70
2019-01-27T23:40:25.562Z,3.70
2019-01-27T23:42:55.714Z,3.80
2019-01-27T23:45:24.112Z,3.80
2019-01-27T23:47:52.476Z,3.80
2019-01-27T23:50:20.977Z,3.90
2019-01-27T23:52:49.415Z,3.90
2019-01-27T23:55:17.819Z,3.90
2019-01-27T23:57:46.277Z,3.90
